Port Elizabeth, South Africa
Current Conditions -  °F | °C
As of 5:00 PM on Sunday 21 Dec 2014 (Local Time) from FAPE Reporting Station
Clear Clear  
Wind Chill: 70°   Ceiling: Unl
Heat Index: 70°   Visibility: 6mi
Dew Point: 55°   Wind: 35mph
Humidity: 60%   Direction: 230°SW
Pressure: 29.85"   Gusts: 49mph
Location:  33.96°S, 25.59°E
Report Text: FAPE 211500Z 23030G43KT CAVOK 21/13 Q1011 NOSIG
Loading
Personal Weather Stations






























Interactive Weather Map New forecast layout! Learn more

10-Day Weather Forecast

Advertisements
Track Severe Weather on mobile